sensor_id;sensor_type;location;lat;lon;timestamp;temperature;humidity
13694;DHT22;6919;52.344;14.518;2023-06-14T00:00:06;12.10;99.90
13694;DHT22;6919;52.344;14.518;2023-06-14T00:02:36;12.20;99.90
13694;DHT22;6919;52.344;14.518;2023-06-14T00:05:05;12.20;1.00
13694;DHT22;6919;52.344;14.518;2023-06-14T00:07:35;12.20;1.00
13694;DHT22;6919;52.344;14.518;2023-06-14T00:10:06;12.30;1.00
13694;DHT22;6919;52.344;14.518;2023-06-14T00:12:36;12.30;1.00
13694;DHT22;6919;52.344;14.518;2023-06-14T00:15:06;12.40;99.90
13694;DHT22;6919;52.344;14.518;2023-06-14T00:17:36;12.40;99.90
13694;DHT22;6919;52.344;14.518;2023-06-14T00:20:06;12.30;1.00
13694;DHT22;6919;52.344;14.518;2023-06-14T00:22:36;12.30;1.00
13694;DHT22;6919;52.344;14.518;2023-06-14T00:25:06;12.00;99.90
13694;DHT22;6919;52.344;14.518;2023-06-14T00:27:56;12.10;1.00
13694;DHT22;6919;52.344;14.518;2023-06-14T00:30:25;11.90;1.00
13694;DHT22;6919;52.344;14.518;2023-06-14T00:32:58;11.90;95.20
13694;DHT22;6919;52.344;14.518;2023-06-14T00:35:26;11.70;4.90
13694;DHT22;6919;52.344;14.518;2023-06-14T00:37:55;11.70;1.00
13694;DHT22;6919;52.344;14.518;2023-06-14T00:40:24;11.70;1.00
13694;DHT22;6919;52.344;14.518;2023-06-14T00:42:52;11.90;1.00
13694;DHT22;6919;52.344;14.518;2023-06-14T00:45:22;12.00;99.90
13694;DHT22;6919;52.344;14.518;2023-06-14T00:47:51;12.00;1.00
13694;DHT22;6919;52.344;14.518;2023-06-14T00:50:22;11.80;1.00
13694;DHT22;6919;52.344;14.518;2023-06-14T00:52:51;11.80;99.90
13694;DHT22;6919;52.344;14.518;2023-06-14T00:55:20;11.90;99.90
13694;DHT22;6919;52.344;14.518;2023-06-14T00:57:49;11.80;99.90
13694;DHT22;6919;52.344;14.518;2023-06-14T01:00:18;11.90;99.90
13694;DHT22;6919;52.344;14.518;2023-06-14T01:02:48;11.90;99.90
13694;DHT22;6919;52.344;14.518;2023-06-14T01:05:17;12.00;99.90
13694;DHT22;6919;52.344;14.518;2023-06-14T01:07:59;12.00;99.90
13694;DHT22;6919;52.344;14.518;2023-06-14T01:10:44;11.90;99.90
13694;DHT22;6919;52.344;14.518;2023-06-14T01:13:21;11.90;99.90
13694;DHT22;6919;52.344;14.518;2023-06-14T01:15:55;11.90;99.90
13694;DHT22;6919;52.344;14.518;2023-06-14T01:18:28;12.00;99.90
13694;DHT22;6919;52.344;14.518;2023-06-14T01:20:56;11.90;99.90
13694;DHT22;6919;52.344;14.518;2023-06-14T01:23:26;11.90;99.90
13694;DHT22;6919;52.344;14.518;2023-06-14T01:25:59;12.00;99.90
13694;DHT22;6919;52.344;14.518;2023-06-14T01:28:31;11.90;99.90
13694;DHT22;6919;52.344;14.518;2023-06-14T01:31:03;11.90;99.90
13694;DHT22;6919;52.344;14.518;2023-06-14T01:33:33;11.80;99.90
13694;DHT22;6919;52.344;14.518;2023-06-14T01:36:05;11.70;99.90
13694;DHT22;6919;52.344;14.518;2023-06-14T01:38:37;11.60;99.90
13694;DHT22;6919;52.344;14.518;2023-06-14T01:41:06;11.60;99.90
13694;DHT22;6919;52.344;14.518;2023-06-14T01:43:35;11.60;99.90
13694;DHT22;6919;52.344;14.518;2023-06-14T01:46:05;11.50;99.90
13694;DHT22;6919;52.344;14.518;2023-06-14T01:48:35;11.40;99.90
13694;DHT22;6919;52.344;14.518;2023-06-14T01:51:03;11.40;99.90
13694;DHT22;6919;52.344;14.518;2023-06-14T01:53:32;11.30;99.90
13694;DHT22;6919;52.344;14.518;2023-06-14T01:56:01;11.30;99.90
13694;DHT22;6919;52.344;14.518;2023-06-14T01:58:30;11.30;99.90
13694;DHT22;6919;52.344;14.518;2023-06-14T02:00:59;11.40;99.90
13694;DHT22;6919;52.344;14.518;2023-06-14T02:03:28;11.50;99.90
13694;DHT22;6919;52.344;14.518;2023-06-14T02:05:56;11.50;99.90
13694;DHT22;6919;52.344;14.518;2023-06-14T02:08:25;11.60;99.90
13694;DHT22;6919;52.344;14.518;2023-06-14T02:10:53;11.50;99.90
13694;DHT22;6919;52.344;14.518;2023-06-14T02:13:23;11.50;99.90
13694;DHT22;6919;52.344;14.518;2023-06-14T02:15:51;11.40;99.90
13694;DHT22;6919;52.344;14.518;2023-06-14T02:18:21;11.30;99.90
13694;DHT22;6919;52.344;14.518;2023-06-14T02:20:50;11.30;99.90
13694;DHT22;6919;52.344;14.518;2023-06-14T02:23:18;11.30;99.90
13694;DHT22;6919;52.344;14.518;2023-06-14T02:25:47;11.30;99.90
13694;DHT22;6919;52.344;14.518;2023-06-14T02:28:16;11.30;99.90
13694;DHT22;6919;52.344;14.518;2023-06-14T02:30:45;11.40;99.90
13694;DHT22;6919;52.344;14.518;2023-06-14T02:33:14;11.40;99.90
13694;DHT22;6919;52.344;14.518;2023-06-14T02:35:42;11.30;99.90
13694;DHT22;6919;52.344;14.518;2023-06-14T02:38:10;11.30;99.90
13694;DHT22;6919;52.344;14.518;2023-06-14T02:40:38;11.40;99.90
13694;DHT22;6919;52.344;14.518;2023-06-14T02:43:09;11.30;99.90
13694;DHT22;6919;52.344;14.518;2023-06-14T02:45:37;11.20;99.90
13694;DHT22;6919;52.344;14.518;2023-06-14T02:48:07;11.10;99.90
13694;DHT22;6919;52.344;14.518;2023-06-14T02:50:35;11.10;99.90
13694;DHT22;6919;52.344;14.518;2023-06-14T02:53:03;11.10;99.90
13694;DHT22;6919;52.344;14.518;2023-06-14T02:55:31;11.00;99.90
13694;DHT22;6919;52.344;14.518;2023-06-14T02:58:00;11.00;99.90
13694;DHT22;6919;52.344;14.518;2023-06-14T03:00:28;11.60;99.90
13694;DHT22;6919;52.344;14.518;2023-06-14T03:02:57;11.10;99.90
13694;DHT22;6919;52.344;14.518;2023-06-14T03:05:29;11.20;99.90
13694;DHT22;6919;52.344;14.518;2023-06-14T03:07:58;11.30;99.90
13694;DHT22;6919;52.344;14.518;2023-06-14T03:10:26;11.20;99.90
13694;DHT22;6919;52.344;14.518;2023-06-14T03:12:55;11.40;99.90
13694;DHT22;6919;52.344;14.518;2023-06-14T03:15:24;11.30;99.90
13694;DHT22;6919;52.344;14.518;2023-06-14T03:17:52;11.40;99.90
13694;DHT22;6919;52.344;14.518;2023-06-14T03:20:20;11.50;99.90
13694;DHT22;6919;52.344;14.518;2023-06-14T03:22:50;11.50;99.90
13694;DHT22;6919;52.344;14.518;2023-06-14T03:25:19;11.50;99.90
13694;DHT22;6919;52.344;14.518;2023-06-14T03:27:48;11.70;99.90
13694;DHT22;6919;52.344;14.518;2023-06-14T03:30:16;11.90;99.90
13694;DHT22;6919;52.344;14.518;2023-06-14T03:32:45;12.10;99.90
13694;DHT22;6919;52.344;14.518;2023-06-14T03:35:14;12.10;99.90
13694;DHT22;6919;52.344;14.518;2023-06-14T03:37:44;12.20;99.90
13694;DHT22;6919;52.344;14.518;2023-06-14T03:40:16;12.20;99.90
13694;DHT22;6919;52.344;14.518;2023-06-14T03:42:46;12.40;99.90
13694;DHT22;6919;52.344;14.518;2023-06-14T03:45:15;12.50;99.90
13694;DHT22;6919;52.344;14.518;2023-06-14T03:47:43;12.40;99.90
13694;DHT22;6919;52.344;14.518;2023-06-14T03:50:12;12.50;99.90
13694;DHT22;6919;52.344;14.518;2023-06-14T03:52:41;12.50;99.90
13694;DHT22;6919;52.344;14.518;2023-06-14T03:55:10;12.50;99.90
13694;DHT22;6919;52.344;14.518;2023-06-14T03:57:44;12.60;99.90
13694;DHT22;6919;52.344;14.518;2023-06-14T04:00:13;12.60;99.90
13694;DHT22;6919;52.344;14.518;2023-06-14T04:02:42;12.60;99.90
13694;DHT22;6919;52.344;14.518;2023-06-14T04:05:11;12.60;99.90
13694;DHT22;6919;52.344;14.518;2023-06-14T04:07:40;12.70;99.90
13694;DHT22;6919;52.344;14.518;2023-06-14T04:10:12;12.70;99.90
13694;DHT22;6919;52.344;14.518;2023-06-14T04:12:41;12.70;99.90
13694;DHT22;6919;52.344;14.518;2023-06-14T04:15:11;12.90;99.90
13694;DHT22;6919;52.344;14.518;2023-06-14T04:17:47;12.70;99.90
13694;DHT22;6919;52.344;14.518;2023-06-14T04:20:16;12.80;99.90
13694;DHT22;6919;52.344;14.518;2023-06-14T04:22:44;12.90;99.90
13694;DHT22;6919;52.344;14.518;2023-06-14T04:25:13;12.90;99.90
13694;DHT22;6919;52.344;14.518;2023-06-14T04:27:41;12.80;99.90
13694;DHT22;6919;52.344;14.518;2023-06-14T04:30:12;12.90;99.90
13694;DHT22;6919;52.344;14.518;2023-06-14T04:32:41;12.80;99.90
13694;DHT22;6919;52.344;14.518;2023-06-14T04:35:09;12.80;99.90
13694;DHT22;6919;52.344;14.518;2023-06-14T04:37:38;13.00;99.90
13694;DHT22;6919;52.344;14.518;2023-06-14T04:40:09;13.00;99.90
13694;DHT22;6919;52.344;14.518;2023-06-14T04:42:38;13.00;99.90
13694;DHT22;6919;52.344;14.518;2023-06-14T04:45:08;13.00;99.90
13694;DHT22;6919;52.344;14.518;2023-06-14T04:47:39;13.20;99.90
13694;DHT22;6919;52.344;14.518;2023-06-14T04:50:09;13.20;99.90
13694;DHT22;6919;52.344;14.518;2023-06-14T04:52:39;13.10;99.90
13694;DHT22;6919;52.344;14.518;2023-06-14T04:55:09;13.10;99.90
13694;DHT22;6919;52.344;14.518;2023-06-14T04:57:37;13.20;99.90
13694;DHT22;6919;52.344;14.518;2023-06-14T05:00:09;13.10;99.90
13694;DHT22;6919;52.344;14.518;2023-06-14T05:02:40;13.30;99.90
13694;DHT22;6919;52.344;14.518;2023-06-14T05:05:09;13.40;99.90
13694;DHT22;6919;52.344;14.518;2023-06-14T05:07:37;13.40;99.90
13694;DHT22;6919;52.344;14.518;2023-06-14T05:10:08;13.50;99.90
13694;DHT22;6919;52.344;14.518;2023-06-14T05:12:37;13.50;99.90
13694;DHT22;6919;52.344;14.518;2023-06-14T05:15:06;13.50;99.90
13694;DHT22;6919;52.344;14.518;2023-06-14T05:17:36;13.60;99.90
13694;DHT22;6919;52.344;14.518;2023-06-14T05:20:09;13.70;99.90
13694;DHT22;6919;52.344;14.518;2023-06-14T05:22:38;13.90;99.90
13694;DHT22;6919;52.344;14.518;2023-06-14T05:25:07;14.00;99.90
13694;DHT22;6919;52.344;14.518;2023-06-14T05:27:36;14.20;99.90
13694;DHT22;6919;52.344;14.518;2023-06-14T05:30:05;14.10;99.90
13694;DHT22;6919;52.344;14.518;2023-06-14T05:32:35;14.00;99.90
13694;DHT22;6919;52.344;14.518;2023-06-14T05:35:03;14.30;99.90
13694;DHT22;6919;52.344;14.518;2023-06-14T05:37:34;14.60;99.90
13694;DHT22;6919;52.344;14.518;2023-06-14T05:40:02;14.80;99.90
13694;DHT22;6919;52.344;14.518;2023-06-14T05:42:32;15.00;99.90
13694;DHT22;6919;52.344;14.518;2023-06-14T05:45:01;15.30;99.90
13694;DHT22;6919;52.344;14.518;2023-06-14T05:47:29;15.20;99.90
13694;DHT22;6919;52.344;14.518;2023-06-14T05:49:58;15.30;99.90
13694;DHT22;6919;52.344;14.518;2023-06-14T05:52:26;15.40;99.90
13694;DHT22;6919;52.344;14.518;2023-06-14T05:54:56;15.50;99.90
13694;DHT22;6919;52.344;14.518;2023-06-14T05:57:24;15.70;99.90
13694;DHT22;6919;52.344;14.518;2023-06-14T05:59:52;15.80;99.90
13694;DHT22;6919;52.344;14.518;2023-06-14T06:02:21;16.00;99.90
13694;DHT22;6919;52.344;14.518;2023-06-14T06:04:50;15.90;99.90
13694;DHT22;6919;52.344;14.518;2023-06-14T06:07:18;16.00;99.90
13694;DHT22;6919;52.344;14.518;2023-06-14T06:09:46;16.10;99.90
13694;DHT22;6919;52.344;14.518;2023-06-14T06:12:16;16.10;99.90
13694;DHT22;6919;52.344;14.518;2023-06-14T06:14:44;16.30;99.90
13694;DHT22;6919;52.344;14.518;2023-06-14T06:17:12;16.60;99.90
13694;DHT22;6919;52.344;14.518;2023-06-14T06:19:40;16.70;99.90
13694;DHT22;6919;52.344;14.518;2023-06-14T06:22:09;16.40;99.90
13694;DHT22;6919;52.344;14.518;2023-06-14T06:24:37;16.40;99.90
13694;DHT22;6919;52.344;14.518;2023-06-14T06:27:06;16.60;99.90
13694;DHT22;6919;52.344;14.518;2023-06-14T06:29:36;16.60;99.90
13694;DHT22;6919;52.344;14.518;2023-06-14T06:32:05;16.50;99.90
13694;DHT22;6919;52.344;14.518;2023-06-14T06:34:34;16.50;99.90
13694;DHT22;6919;52.344;14.518;2023-06-14T06:37:04;16.50;99.90
13694;DHT22;6919;52.344;14.518;2023-06-14T06:39:33;17.00;99.90
13694;DHT22;6919;52.344;14.518;2023-06-14T06:42:01;17.00;99.90
13694;DHT22;6919;52.344;14.518;2023-06-14T06:44:30;16.80;99.90
13694;DHT22;6919;52.344;14.518;2023-06-14T06:46:59;16.70;99.90
13694;DHT22;6919;52.344;14.518;2023-06-14T06:49:29;16.60;99.90
13694;DHT22;6919;52.344;14.518;2023-06-14T06:52:01;16.50;99.90
13694;DHT22;6919;52.344;14.518;2023-06-14T06:54:30;16.50;99.90
13694;DHT22;6919;52.344;14.518;2023-06-14T06:56:59;16.50;99.90
13694;DHT22;6919;52.344;14.518;2023-06-14T06:59:28;16.40;99.90
13694;DHT22;6919;52.344;14.518;2023-06-14T07:01:57;16.60;99.90
13694;DHT22;6919;52.344;14.518;2023-06-14T07:04:26;16.80;99.90
13694;DHT22;6919;52.344;14.518;2023-06-14T07:06:55;16.90;99.90
13694;DHT22;6919;52.344;14.518;2023-06-14T07:09:23;17.20;99.90
13694;DHT22;6919;52.344;14.518;2023-06-14T07:11:51;17.70;99.90
13694;DHT22;6919;52.344;14.518;2023-06-14T07:14:20;17.80;99.90
13694;DHT22;6919;52.344;14.518;2023-06-14T07:16:49;17.90;99.90
13694;DHT22;6919;52.344;14.518;2023-06-14T07:19:18;17.60;99.90
13694;DHT22;6919;52.344;14.518;2023-06-14T07:21:49;17.70;99.90
13694;DHT22;6919;52.344;14.518;2023-06-14T07:24:17;17.60;99.90
13694;DHT22;6919;52.344;14.518;2023-06-14T07:26:47;17.90;99.90
13694;DHT22;6919;52.344;14.518;2023-06-14T07:29:16;18.00;99.90
13694;DHT22;6919;52.344;14.518;2023-06-14T07:31:44;18.40;99.90
13694;DHT22;6919;52.344;14.518;2023-06-14T07:34:14;18.70;99.90
13694;DHT22;6919;52.344;14.518;2023-06-14T07:36:42;19.10;99.90
13694;DHT22;6919;52.344;14.518;2023-06-14T07:39:13;19.30;99.90
13694;DHT22;6919;52.344;14.518;2023-06-14T07:41:41;19.40;99.90
13694;DHT22;6919;52.344;14.518;2023-06-14T07:44:10;19.50;99.90
13694;DHT22;6919;52.344;14.518;2023-06-14T07:46:39;19.40;99.90
13694;DHT22;6919;52.344;14.518;2023-06-14T07:49:07;19.40;99.90
13694;DHT22;6919;52.344;14.518;2023-06-14T07:51:35;19.00;99.90
13694;DHT22;6919;52.344;14.518;2023-06-14T07:54:04;19.00;99.90
13694;DHT22;6919;52.344;14.518;2023-06-14T07:56:35;19.10;99.90
13694;DHT22;6919;52.344;14.518;2023-06-14T07:59:03;18.90;99.90
13694;DHT22;6919;52.344;14.518;2023-06-14T08:01:32;18.60;99.90
13694;DHT22;6919;52.344;14.518;2023-06-14T08:04:01;18.70;99.90
13694;DHT22;6919;52.344;14.518;2023-06-14T08:06:29;18.90;99.90
13694;DHT22;6919;52.344;14.518;2023-06-14T08:08:58;19.50;99.90
13694;DHT22;6919;52.344;14.518;2023-06-14T08:11:26;19.90;99.90
13694;DHT22;6919;52.344;14.518;2023-06-14T08:13:56;20.30;99.90
13694;DHT22;6919;52.344;14.518;2023-06-14T08:16:24;20.70;99.90
13694;DHT22;6919;52.344;14.518;2023-06-14T08:18:52;20.80;99.90
13694;DHT22;6919;52.344;14.518;2023-06-14T08:21:21;21.20;99.90
13694;DHT22;6919;52.344;14.518;2023-06-14T08:23:49;21.60;99.90
13694;DHT22;6919;52.344;14.518;2023-06-14T08:26:20;21.90;99.90
13694;DHT22;6919;52.344;14.518;2023-06-14T08:28:48;22.00;99.90
13694;DHT22;6919;52.344;14.518;2023-06-14T08:31:18;21.90;99.90
13694;DHT22;6919;52.344;14.518;2023-06-14T08:33:46;22.10;96.00
13694;DHT22;6919;52.344;14.518;2023-06-14T08:36:15;21.80;98.90
13694;DHT22;6919;52.344;14.518;2023-06-14T08:38:43;22.00;99.90
13694;DHT22;6919;52.344;14.518;2023-06-14T08:41:12;21.40;99.90
13694;DHT22;6919;52.344;14.518;2023-06-14T08:43:48;21.30;99.90
13694;DHT22;6919;52.344;14.518;2023-06-14T08:46:18;21.00;99.90
13694;DHT22;6919;52.344;14.518;2023-06-14T08:48:49;20.60;99.90
13694;DHT22;6919;52.344;14.518;2023-06-14T08:51:19;21.30;99.90
13694;DHT22;6919;52.344;14.518;2023-06-14T08:53:52;21.70;99.90
13694;DHT22;6919;52.344;14.518;2023-06-14T08:56:25;22.30;96.90
13694;DHT22;6919;52.344;14.518;2023-06-14T08:58:55;21.70;99.10
13694;DHT22;6919;52.344;14.518;2023-06-14T09:01:30;21.50;99.90
13694;DHT22;6919;52.344;14.518;2023-06-14T09:04:01;21.60;99.50
13694;DHT22;6919;52.344;14.518;2023-06-14T09:06:32;21.40;99.10
13694;DHT22;6919;52.344;14.518;2023-06-14T09:09:00;21.70;99.80
13694;DHT22;6919;52.344;14.518;2023-06-14T09:11:31;21.20;97.60
13694;DHT22;6919;52.344;14.518;2023-06-14T09:14:00;20.80;99.90
13694;DHT22;6919;52.344;14.518;2023-06-14T09:16:32;21.20;99.40
13694;DHT22;6919;52.344;14.518;2023-06-14T09:19:00;20.60;99.60
13694;DHT22;6919;52.344;14.518;2023-06-14T09:21:34;20.20;99.90
13694;DHT22;6919;52.344;14.518;2023-06-14T09:24:04;20.10;99.90
13694;DHT22;6919;52.344;14.518;2023-06-14T09:26:38;20.30;99.90
13694;DHT22;6919;52.344;14.518;2023-06-14T09:29:09;20.20;99.90
13694;DHT22;6919;52.344;14.518;2023-06-14T09:31:39;20.00;99.90
13694;DHT22;6919;52.344;14.518;2023-06-14T09:34:07;20.00;99.90
13694;DHT22;6919;52.344;14.518;2023-06-14T09:36:39;20.00;99.90
13694;DHT22;6919;52.344;14.518;2023-06-14T09:39:09;19.90;99.90
13694;DHT22;6919;52.344;14.518;2023-06-14T09:41:39;19.90;99.90
13694;DHT22;6919;52.344;14.518;2023-06-14T09:44:10;19.50;99.90
13694;DHT22;6919;52.344;14.518;2023-06-14T09:46:48;19.50;99.90
13694;DHT22;6919;52.344;14.518;2023-06-14T09:49:17;19.60;99.90
13694;DHT22;6919;52.344;14.518;2023-06-14T09:51:46;19.90;99.90
13694;DHT22;6919;52.344;14.518;2023-06-14T09:54:22;20.00;99.90
13694;DHT22;6919;52.344;14.518;2023-06-14T09:56:54;19.90;99.90
13694;DHT22;6919;52.344;14.518;2023-06-14T09:59:26;19.90;99.90
13694;DHT22;6919;52.344;14.518;2023-06-14T10:02:05;20.10;99.90
13694;DHT22;6919;52.344;14.518;2023-06-14T10:04:40;20.60;99.90
13694;DHT22;6919;52.344;14.518;2023-06-14T10:07:18;20.90;99.90
13694;DHT22;6919;52.344;14.518;2023-06-14T10:09:49;21.20;99.90
13694;DHT22;6919;52.344;14.518;2023-06-14T10:12:18;21.30;99.90
13694;DHT22;6919;52.344;14.518;2023-06-14T10:14:49;21.30;99.90
13694;DHT22;6919;52.344;14.518;2023-06-14T10:17:27;21.40;97.70
13694;DHT22;6919;52.344;14.518;2023-06-14T10:20:14;21.60;94.70
13694;DHT22;6919;52.344;14.518;2023-06-14T10:22:51;21.90;95.80
13694;DHT22;6919;52.344;14.518;2023-06-14T10:25:27;22.20;91.90
13694;DHT22;6919;52.344;14.518;2023-06-14T10:28:14;22.70;88.00
13694;DHT22;6919;52.344;14.518;2023-06-14T10:31:06;23.10;83.70
13694;DHT22;6919;52.344;14.518;2023-06-14T10:33:39;22.80;73.50
13694;DHT22;6919;52.344;14.518;2023-06-14T10:36:28;22.70;77.00
13694;DHT22;6919;52.344;14.518;2023-06-14T10:39:05;22.10;74.80
13694;DHT22;6919;52.344;14.518;2023-06-14T10:41:36;22.20;85.40
13694;DHT22;6919;52.344;14.518;2023-06-14T10:44:31;21.90;81.20
13694;DHT22;6919;52.344;14.518;2023-06-14T10:47:08;22.20;85.40
13694;DHT22;6919;52.344;14.518;2023-06-14T10:49:42;22.40;86.00
13694;DHT22;6919;52.344;14.518;2023-06-14T10:52:13;22.80;85.10
13694;DHT22;6919;52.344;14.518;2023-06-14T10:55:16;23.20;76.60
13694;DHT22;6919;52.344;14.518;2023-06-14T10:57:48;22.60;71.50
13694;DHT22;6919;52.344;14.518;2023-06-14T11:00:22;22.40;72.20
13694;DHT22;6919;52.344;14.518;2023-06-14T11:03:13;22.30;69.10
13694;DHT22;6919;52.344;14.518;2023-06-14T11:06:13;22.50;66.30
13694;DHT22;6919;52.344;14.518;2023-06-14T11:09:20;22.20;69.00
13694;DHT22;6919;52.344;14.518;2023-06-14T11:12:10;21.90;71.00
13694;DHT22;6919;52.344;14.518;2023-06-14T11:14:38;22.10;69.90
13694;DHT22;6919;52.344;14.518;2023-06-14T11:17:07;22.20;70.10
13694;DHT22;6919;52.344;14.518;2023-06-14T11:19:35;21.90;67.60
13694;DHT22;6919;52.344;14.518;2023-06-14T11:22:05;22.00;71.20
13694;DHT22;6919;52.344;14.518;2023-06-14T11:24:34;22.20;69.20
13694;DHT22;6919;52.344;14.518;2023-06-14T11:27:03;22.00;69.60
13694;DHT22;6919;52.344;14.518;2023-06-14T11:29:33;22.10;69.70
13694;DHT22;6919;52.344;14.518;2023-06-14T11:32:01;22.00;65.70
13694;DHT22;6919;52.344;14.518;2023-06-14T11:34:30;22.30;69.20
13694;DHT22;6919;52.344;14.518;2023-06-14T11:36:58;22.30;68.00
13694;DHT22;6919;52.344;14.518;2023-06-14T11:39:28;22.10;65.70
13694;DHT22;6919;52.344;14.518;2023-06-14T11:41:57;22.30;66.10
13694;DHT22;6919;52.344;14.518;2023-06-14T11:44:28;22.70;69.90
13694;DHT22;6919;52.344;14.518;2023-06-14T11:46:57;23.20;67.30
13694;DHT22;6919;52.344;14.518;2023-06-14T11:49:25;23.10;63.20
13694;DHT22;6919;52.344;14.518;2023-06-14T11:51:54;22.90;62.60
13694;DHT22;6919;52.344;14.518;2023-06-14T11:54:23;23.00;64.80
13694;DHT22;6919;52.344;14.518;2023-06-14T11:56:54;23.40;61.80
13694;DHT22;6919;52.344;14.518;2023-06-14T11:59:22;23.40;58.60
13694;DHT22;6919;52.344;14.518;2023-06-14T12:01:53;24.00;57.60
13694;DHT22;6919;52.344;14.518;2023-06-14T12:04:27;24.50;56.40
13694;DHT22;6919;52.344;14.518;2023-06-14T12:06:55;25.00;53.40
13694;DHT22;6919;52.344;14.518;2023-06-14T12:09:24;25.20;52.30
13694;DHT22;6919;52.344;14.518;2023-06-14T12:12:01;25.30;50.50
13694;DHT22;6919;52.344;14.518;2023-06-14T12:14:30;25.70;50.30
13694;DHT22;6919;52.344;14.518;2023-06-14T12:17:04;25.70;47.80
13694;DHT22;6919;52.344;14.518;2023-06-14T12:19:41;25.50;45.90
13694;DHT22;6919;52.344;14.518;2023-06-14T12:22:11;25.80;45.40
13694;DHT22;6919;52.344;14.518;2023-06-14T12:24:42;25.40;44.50
13694;DHT22;6919;52.344;14.518;2023-06-14T12:27:13;25.50;45.50
13694;DHT22;6919;52.344;14.518;2023-06-14T12:29:42;25.10;44.80
13694;DHT22;6919;52.344;14.518;2023-06-14T12:32:11;24.90;44.00
13694;DHT22;6919;52.344;14.518;2023-06-14T12:34:40;24.70;44.20
13694;DHT22;6919;52.344;14.518;2023-06-14T12:37:08;24.30;44.20
13694;DHT22;6919;52.344;14.518;2023-06-14T12:39:37;24.50;43.60
13694;DHT22;6919;52.344;14.518;2023-06-14T12:42:07;24.30;42.80
13694;DHT22;6919;52.344;14.518;2023-06-14T12:44:37;24.20;44.10
13694;DHT22;6919;52.344;14.518;2023-06-14T12:47:07;24.20;44.40
13694;DHT22;6919;52.344;14.518;2023-06-14T12:49:35;25.00;46.10
13694;DHT22;6919;52.344;14.518;2023-06-14T12:52:04;25.00;43.50
13694;DHT22;6919;52.344;14.518;2023-06-14T12:54:33;25.30;42.80
13694;DHT22;6919;52.344;14.518;2023-06-14T12:57:07;25.70;42.70
13694;DHT22;6919;52.344;14.518;2023-06-14T12:59:37;26.60;39.70
13694;DHT22;6919;52.344;14.518;2023-06-14T13:02:13;26.90;38.50
13694;DHT22;6919;52.344;14.518;2023-06-14T13:04:43;27.80;34.20
13694;DHT22;6919;52.344;14.518;2023-06-14T13:07:12;27.30;36.50
13694;DHT22;6919;52.344;14.518;2023-06-14T13:09:42;27.60;33.20
13694;DHT22;6919;52.344;14.518;2023-06-14T13:12:11;28.30;33.70
13694;DHT22;6919;52.344;14.518;2023-06-14T13:14:40;27.90;34.90
13694;DHT22;6919;52.344;14.518;2023-06-14T13:17:10;27.20;35.70
13694;DHT22;6919;52.344;14.518;2023-06-14T13:19:38;27.30;37.30
13694;DHT22;6919;52.344;14.518;2023-06-14T13:22:08;27.70;36.00
13694;DHT22;6919;52.344;14.518;2023-06-14T13:24:36;27.30;37.00
13694;DHT22;6919;52.344;14.518;2023-06-14T13:27:05;26.90;36.50
13694;DHT22;6919;52.344;14.518;2023-06-14T13:29:34;26.30;38.40
13694;DHT22;6919;52.344;14.518;2023-06-14T13:32:06;26.80;37.80
13694;DHT22;6919;52.344;14.518;2023-06-14T13:34:35;27.20;37.20
13694;DHT22;6919;52.344;14.518;2023-06-14T13:37:03;27.80;35.20
13694;DHT22;6919;52.344;14.518;2023-06-14T13:39:32;28.30;33.50
13694;DHT22;6919;52.344;14.518;2023-06-14T13:42:00;28.10;32.70
13694;DHT22;6919;52.344;14.518;2023-06-14T13:44:28;28.00;31.00
13694;DHT22;6919;52.344;14.518;2023-06-14T13:46:56;27.40;32.30
13694;DHT22;6919;52.344;14.518;2023-06-14T13:49:26;27.10;32.20
13694;DHT22;6919;52.344;14.518;2023-06-14T13:51:54;26.30;34.20
13694;DHT22;6919;52.344;14.518;2023-06-14T13:54:23;26.00;34.10
13694;DHT22;6919;52.344;14.518;2023-06-14T13:56:51;25.20;35.60
13694;DHT22;6919;52.344;14.518;2023-06-14T13:59:21;24.90;37.10
13694;DHT22;6919;52.344;14.518;2023-06-14T14:01:49;25.20;37.80
13694;DHT22;6919;52.344;14.518;2023-06-14T14:04:18;25.70;35.70
13694;DHT22;6919;52.344;14.518;2023-06-14T14:06:48;25.40;36.10
13694;DHT22;6919;52.344;14.518;2023-06-14T14:09:16;25.40;36.70
13694;DHT22;6919;52.344;14.518;2023-06-14T14:11:44;25.10;36.40
13694;DHT22;6919;52.344;14.518;2023-06-14T14:14:14;24.90;37.40
13694;DHT22;6919;52.344;14.518;2023-06-14T14:16:42;24.70;36.90
13694;DHT22;6919;52.344;14.518;2023-06-14T14:19:10;25.40;36.10
13694;DHT22;6919;52.344;14.518;2023-06-14T14:21:39;25.80;35.20
13694;DHT22;6919;52.344;14.518;2023-06-14T14:24:09;25.60;34.20
13694;DHT22;6919;52.344;14.518;2023-06-14T14:26:37;26.40;36.70
13694;DHT22;6919;52.344;14.518;2023-06-14T14:29:05;27.10;34.60
13694;DHT22;6919;52.344;14.518;2023-06-14T14:31:34;28.10;31.70
13694;DHT22;6919;52.344;14.518;2023-06-14T14:34:03;28.30;30.90
13694;DHT22;6919;52.344;14.518;2023-06-14T14:36:31;28.40;29.50
13694;DHT22;6919;52.344;14.518;2023-06-14T14:39:00;28.00;30.00
13694;DHT22;6919;52.344;14.518;2023-06-14T14:41:30;27.80;28.40
13694;DHT22;6919;52.344;14.518;2023-06-14T14:43:58;28.30;29.90
13694;DHT22;6919;52.344;14.518;2023-06-14T14:46:27;29.40;26.90
13694;DHT22;6919;52.344;14.518;2023-06-14T14:48:55;29.90;25.40
13694;DHT22;6919;52.344;14.518;2023-06-14T14:51:23;28.90;25.20
13694;DHT22;6919;52.344;14.518;2023-06-14T14:53:52;27.80;26.60
13694;DHT22;6919;52.344;14.518;2023-06-14T14:56:22;27.60;28.20
13694;DHT22;6919;52.344;14.518;2023-06-14T14:58:54;27.90;27.50
13694;DHT22;6919;52.344;14.518;2023-06-14T15:01:22;28.00;26.50
13694;DHT22;6919;52.344;14.518;2023-06-14T15:03:50;28.50;28.10
13694;DHT22;6919;52.344;14.518;2023-06-14T15:06:25;28.80;27.30
13694;DHT22;6919;52.344;14.518;2023-06-14T15:08:53;28.50;26.90
13694;DHT22;6919;52.344;14.518;2023-06-14T15:11:22;27.70;27.50
13694;DHT22;6919;52.344;14.518;2023-06-14T15:13:50;26.90;29.20
13694;DHT22;6919;52.344;14.518;2023-06-14T15:16:20;26.30;30.00
13694;DHT22;6919;52.344;14.518;2023-06-14T15:18:48;25.80;33.10
13694;DHT22;6919;52.344;14.518;2023-06-14T15:21:16;24.80;38.70
13694;DHT22;6919;52.344;14.518;2023-06-14T15:23:45;23.70;40.30
13694;DHT22;6919;52.344;14.518;2023-06-14T15:26:14;23.00;42.80
13694;DHT22;6919;52.344;14.518;2023-06-14T15:28:42;22.50;43.40
13694;DHT22;6919;52.344;14.518;2023-06-14T15:31:10;21.90;46.90
13694;DHT22;6919;52.344;14.518;2023-06-14T15:33:40;21.70;50.00
13694;DHT22;6919;52.344;14.518;2023-06-14T15:36:10;21.00;56.40
13694;DHT22;6919;52.344;14.518;2023-06-14T15:38:38;21.00;99.90
13694;DHT22;6919;52.344;14.518;2023-06-14T15:41:06;20.90;99.90
13694;DHT22;6919;52.344;14.518;2023-06-14T15:43:35;21.10;99.90
13694;DHT22;6919;52.344;14.518;2023-06-14T15:46:03;21.30;1.00
13694;DHT22;6919;52.344;14.518;2023-06-14T15:48:31;21.10;1.00
13694;DHT22;6919;52.344;14.518;2023-06-14T15:51:01;21.40;99.90